Aérodrome :
LOGIN :

S'inscrire | Disclaimer

   EN    FR    IT 

 










Légende :    VFR   VFR Marginal   IFR   IFR Intensif   IFR Très Intensif
Visi : 
Plafond : 
>= 8 km
>= 3000ft
5 à 8 km
1000 à 3000 ft
1500m à 5 km
500 à 1000 ft
800 à 1500m
200 à 500 ft
< 800m
< 200 ft
Symboles :   Orages  Brouillard  Fortes neiges  Fortes précipitations  Vent > 20 kt
SIGMETs :   Divers  Orages  Givrage  Turbulence  Onde Orograph.  Cendres Volcan.







- Altitude de l'aérodrome : 313 ft
- Voir les cartes d'approche


LFQA - Reims-Prunay

DERNIER METAR :
  • 161500Z AUTO 28006KT 250V310 9999 FEW026 SCT035 OVC056 06/05 Q1000

METARs EXPIRÉS :
  • 161430Z AUTO 27008KT 9999 -RA FEW020 BKN030 OVC039 06/04 Q1001
  • 161400Z AUTO 29012KT 260V320 9999 -RA BKN032/// OVC042/// ///TCU 06/03 Q1001
  • 161330Z AUTO 26015KT 9999 FEW035 SCT050 BKN064 08/03 Q1001
  • 161300Z AUTO 28016KT 240V300 9999 FEW026 SCT038 BKN084 08/04 Q1001
  • 161230Z AUTO 27020KT 9999 BKN027 BKN033 BKN043 08/03 Q1001

TAF N/A
Pas de NOTAMs connus pour ce terrain.
2 SIGMETs publiés pour la FIR Paris (LFFF) :
 
Turbulence forte
LFFF SIGMET 6 VALID 161600/162000 LFPW
LFFF PARIS FIR/UIR SEV TURB FCST NW OF LINE N5045 E00245 - N4915 W00015 SFC/FL060 STNR NC=
Turbulence forte
LFFF SIGMET 5 VALID 161200/161600 LFPW
LFFF PARIS FIR/UIR SEV TURB FCST WI N4915 W00015 - N5000 W00015 - N5115 E00200 - N5045 E00245 - N4915 W00015 SFC/FL060 STNR NC=



MET'MAP, la Météo Aéronautique d'un coup d'oeil ! - Copyright ORBIFLY Décembre 2007 - Disclaimer

ORBIFLY MET'MAP TEAM :

Programmation & Développement : Alexandra Zaïnal
Conception & Développement : Baudouin d'Aumeries
Co-Programmation & Développement : Marc-Olivier Méhu
Soutien technique & logistique : Manuel Goepfert

Contact : metmap@orbifly.com




SOURCES & CREDITS :

   NOAA